createdAt,value
2023-02-17T00:01:27.161Z,8.20
2023-02-17T00:03:54.348Z,8.20
2023-02-17T00:06:23.082Z,8.20
2023-02-17T00:08:51.765Z,8.30
2023-02-17T00:11:19.216Z,8.30
2023-02-17T00:13:46.382Z,8.30
2023-02-17T00:16:16.278Z,8.30
2023-02-17T00:18:43.239Z,8.30
2023-02-17T00:21:15.146Z,8.20
2023-02-17T00:23:42.327Z,8.20
2023-02-17T00:26:10.975Z,8.20
2023-02-17T00:28:37.991Z,8.20
2023-02-17T00:31:09.652Z,8.10
2023-02-17T00:33:37.134Z,8.10
2023-02-17T00:36:06.733Z,8.10
2023-02-17T00:38:33.942Z,8.10
2023-02-17T00:41:00.878Z,8.00
2023-02-17T00:43:29.168Z,8.00
2023-02-17T00:45:56.137Z,8.00
2023-02-17T00:48:23.319Z,8.00
2023-02-17T00:50:50.209Z,8.00
2023-02-17T00:53:18.073Z,8.00
2023-02-17T00:55:44.938Z,7.90
2023-02-17T00:58:11.967Z,7.90
2023-02-17T01:00:40.156Z,7.90
2023-02-17T01:03:07.017Z,7.80
2023-02-17T01:05:40.196Z,7.80
2023-02-17T01:08:07.061Z,7.90
2023-02-17T01:10:36.901Z,7.90
2023-02-17T01:13:03.763Z,7.90
2023-02-17T01:15:30.709Z,7.90
2023-02-17T01:17:58.913Z,7.90
2023-02-17T01:20:25.748Z,8.00
2023-02-17T01:22:52.627Z,8.00
2023-02-17T01:25:19.653Z,8.10
2023-02-17T01:27:47.256Z,8.10
2023-02-17T01:30:14.441Z,8.20
2023-02-17T01:32:41.366Z,8.20
2023-02-17T01:35:09.947Z,8.20
2023-02-17T01:37:36.800Z,8.30
2023-02-17T01:40:04.792Z,8.30
2023-02-17T01:42:31.567Z,8.40
2023-02-17T01:45:29.576Z,8.40
2023-02-17T01:48:00.253Z,8.40
2023-02-17T01:50:32.545Z,8.40
2023-02-17T01:53:02.190Z,8.40
2023-02-17T01:55:29.799Z,8.40
2023-02-17T01:57:59.020Z,8.50
2023-02-17T02:00:28.427Z,8.50
2023-02-17T02:02:55.524Z,8.50
2023-02-17T02:05:22.721Z,8.50
2023-02-17T02:07:52.453Z,8.50
2023-02-17T02:10:19.921Z,8.50
2023-02-17T02:12:47.287Z,8.50
2023-02-17T02:15:16.349Z,8.50
2023-02-17T02:17:55.342Z,8.40
2023-02-17T02:20:39.602Z,8.40
2023-02-17T02:23:26.351Z,8.40
2023-02-17T02:26:13.531Z,8.40
2023-02-17T02:28:53.011Z,8.30
2023-02-17T02:31:30.216Z,8.30
2023-02-17T02:34:01.613Z,8.30
2023-02-17T02:36:32.289Z,8.30
2023-02-17T02:39:02.997Z,8.30
2023-02-17T02:41:33.878Z,8.30
2023-02-17T02:44:03.951Z,8.30
2023-02-17T02:46:30.886Z,8.40
2023-02-17T02:49:00.295Z,8.40
2023-02-17T02:51:37.392Z,8.40
2023-02-17T02:54:45.340Z,8.40
2023-02-17T02:57:36.074Z,8.40
2023-02-17T03:00:13.748Z,8.40
2023-02-17T03:02:48.190Z,8.40
2023-02-17T03:05:26.040Z,8.40
2023-02-17T03:07:59.057Z,8.40
2023-02-17T03:10:26.009Z,8.50
2023-02-17T03:12:53.242Z,8.50
2023-02-17T03:15:24.904Z,8.50
2023-02-17T03:17:51.778Z,8.50
2023-02-17T03:20:20.067Z,8.50
2023-02-17T03:22:48.352Z,8.50
2023-02-17T03:25:15.985Z,8.50
2023-02-17T03:27:42.881Z,8.50
2023-02-17T03:30:11.155Z,8.50
2023-02-17T03:32:38.050Z,8.60
2023-02-17T03:35:05.546Z,8.60
2023-02-17T03:37:33.953Z,8.60
2023-02-17T03:40:00.884Z,8.60
2023-02-17T03:42:27.731Z,8.60
2023-02-17T03:44:54.594Z,8.60
2023-02-17T03:47:21.427Z,8.60
2023-02-17T03:49:48.299Z,8.70
2023-02-17T03:52:15.263Z,8.70
2023-02-17T03:54:43.545Z,8.70
2023-02-17T03:57:10.398Z,8.70
2023-02-17T03:59:37.575Z,8.80
2023-02-17T04:02:04.504Z,8.80
2023-02-17T04:04:31.401Z,8.90
2023-02-17T04:06:58.227Z,8.90
2023-02-17T04:09:25.052Z,9.00
2023-02-17T04:11:53.241Z,9.00
2023-02-17T04:14:20.171Z,9.00
2023-02-17T04:16:47.069Z,9.10
2023-02-17T04:19:13.874Z,9.10
2023-02-17T04:21:40.720Z,9.10
2023-02-17T04:24:07.668Z,9.10
2023-02-17T04:26:34.443Z,9.10
2023-02-17T04:29:03.778Z,9.10
2023-02-17T04:31:30.718Z,9.10
2023-02-17T04:33:57.629Z,9.10
2023-02-17T04:36:25.164Z,9.20
2023-02-17T04:38:52.069Z,9.10
2023-02-17T04:41:18.852Z,9.10
2023-02-17T04:43:45.833Z,9.20
2023-02-17T04:46:14.059Z,9.20
2023-02-17T04:48:40.993Z,9.20
2023-02-17T04:51:07.860Z,9.20
2023-02-17T04:53:34.666Z,9.20
2023-02-17T04:56:01.569Z,9.20
2023-02-17T04:58:28.407Z,9.20
2023-02-17T05:00:58.438Z,9.20
2023-02-17T05:03:26.599Z,9.20
2023-02-17T05:05:53.430Z,9.20
2023-02-17T05:08:20.322Z,9.20
2023-02-17T05:10:47.188Z,9.30
2023-02-17T05:13:14.043Z,9.20
2023-02-17T05:15:42.775Z,9.30
2023-02-17T05:18:09.744Z,9.30
2023-02-17T05:20:37.995Z,9.30
2023-02-17T05:23:05.248Z,9.30
2023-02-17T05:25:32.383Z,9.30
2023-02-17T05:27:59.457Z,9.30
2023-02-17T05:30:26.309Z,9.30
2023-02-17T05:32:53.181Z,9.40
2023-02-17T05:35:20.030Z,9.30
2023-02-17T05:40:35.093Z,9.40
2023-02-17T05:43:01.939Z,9.40
2023-02-17T05:45:28.801Z,9.40
2023-02-17T05:47:55.618Z,9.40
2023-02-17T05:50:22.477Z,9.40
2023-02-17T05:52:49.293Z,9.40
2023-02-17T05:55:16.391Z,9.40
2023-02-17T05:57:44.701Z,9.50
2023-02-17T06:00:12.818Z,9.50
2023-02-17T06:02:39.789Z,9.50
2023-02-17T06:05:07.573Z,9.50
2023-02-17T06:07:34.550Z,9.50
2023-02-17T06:10:01.516Z,9.50
2023-02-17T06:12:28.472Z,9.60
2023-02-17T06:14:56.698Z,9.60
2023-02-17T06:17:23.630Z,9.60
2023-02-17T06:19:50.492Z,9.60
2023-02-17T06:22:18.659Z,9.60
2023-02-17T06:24:45.638Z,9.60
2023-02-17T06:27:12.630Z,9.60
2023-02-17T06:29:39.541Z,9.60
2023-02-17T06:32:07.817Z,9.60
2023-02-17T06:34:34.722Z,9.70
2023-02-17T06:37:01.613Z,9.60
2023-02-17T06:39:28.568Z,9.60
2023-02-17T06:41:55.561Z,9.70
2023-02-17T06:44:22.601Z,9.70
2023-02-17T06:46:49.596Z,9.70
2023-02-17T06:49:17.893Z,9.70
2023-02-17T06:51:44.755Z,9.70
2023-02-17T06:54:11.780Z,9.70
2023-02-17T06:56:38.640Z,9.70
2023-02-17T06:59:05.582Z,9.80
2023-02-17T07:01:32.547Z,9.80
2023-02-17T07:03:59.886Z,9.80
2023-02-17T07:06:28.097Z,9.80
2023-02-17T07:08:55.228Z,9.90
2023-02-17T07:11:22.173Z,9.90
2023-02-17T07:13:49.049Z,9.90
2023-02-17T07:16:16.583Z,9.90
2023-02-17T07:18:43.496Z,10.00
2023-02-17T07:21:10.594Z,10.00
2023-02-17T07:23:39.571Z,10.00
2023-02-17T07:26:09.138Z,10.10
2023-02-17T07:28:36.579Z,10.10
2023-02-17T07:31:07.126Z,10.10
2023-02-17T07:33:34.548Z,10.10
2023-02-17T07:36:05.470Z,10.10
2023-02-17T07:38:33.487Z,10.20
2023-02-17T07:41:06.342Z,10.20
2023-02-17T07:43:33.574Z,10.20
2023-02-17T07:46:00.627Z,10.20
2023-02-17T07:48:27.514Z,10.20
2023-02-17T07:50:54.627Z,10.20
2023-02-17T07:53:21.509Z,10.30
2023-02-17T07:55:48.483Z,10.30
2023-02-17T07:58:16.810Z,10.30
2023-02-17T08:00:43.760Z,10.30
2023-02-17T08:03:10.756Z,10.30
2023-02-17T08:05:40.681Z,10.30
2023-02-17T08:08:26.522Z,10.40
2023-02-17T08:11:11.951Z,10.40
2023-02-17T08:13:40.243Z,10.40
2023-02-17T08:16:07.348Z,10.40
2023-02-17T08:18:36.478Z,10.50
2023-02-17T08:21:05.203Z,10.50
2023-02-17T08:23:32.292Z,10.50
2023-02-17T08:25:59.472Z,10.50
2023-02-17T08:28:26.488Z,10.60
2023-02-17T08:30:54.928Z,10.60
2023-02-17T08:33:22.005Z,10.60
2023-02-17T08:35:48.988Z,10.60
2023-02-17T08:38:16.230Z,10.70
2023-02-17T08:40:43.188Z,10.70
2023-02-17T08:43:10.497Z,10.70
2023-02-17T08:45:37.702Z,10.70
2023-02-17T08:48:06.384Z,10.80
2023-02-17T08:50:33.822Z,10.80
2023-02-17T08:53:00.693Z,10.80
2023-02-17T08:55:29.326Z,10.90
2023-02-17T08:57:57.456Z,10.90
2023-02-17T09:00:24.388Z,11.00
2023-02-17T09:02:51.382Z,11.00
2023-02-17T09:05:19.894Z,11.10
2023-02-17T09:07:46.867Z,11.10
2023-02-17T09:10:14.081Z,11.10
2023-02-17T09:12:41.632Z,11.10
2023-02-17T09:15:09.168Z,11.10
2023-02-17T09:17:39.833Z,11.20
2023-02-17T09:20:19.534Z,11.20
2023-02-17T09:22:52.778Z,11.20
2023-02-17T09:25:19.772Z,11.20
2023-02-17T09:27:46.632Z,11.20
2023-02-17T09:30:14.279Z,11.20
2023-02-17T09:32:41.906Z,11.20
2023-02-17T09:35:11.211Z,11.30
2023-02-17T09:37:38.125Z,11.30
2023-02-17T09:40:07.500Z,11.30
2023-02-17T09:42:40.066Z,11.30
2023-02-17T09:45:12.935Z,11.30
2023-02-17T09:47:46.324Z,11.30
2023-02-17T09:50:16.396Z,11.30
2023-02-17T09:52:49.000Z,11.40
2023-02-17T09:55:23.356Z,11.40
2023-02-17T09:57:56.144Z,11.40
2023-02-17T10:00:26.001Z,11.50
2023-02-17T10:02:59.568Z,11.50
2023-02-17T10:05:30.929Z,11.50
2023-02-17T10:08:05.464Z,11.50
2023-02-17T10:10:40.183Z,11.50
2023-02-17T10:13:07.799Z,11.50
2023-02-17T10:15:38.674Z,11.60
2023-02-17T10:18:11.741Z,11.60
2023-02-17T10:20:42.184Z,11.60
2023-02-17T10:23:14.210Z,11.60
2023-02-17T10:26:05.007Z,11.70
2023-02-17T10:28:43.984Z,11.70
2023-02-17T10:31:13.297Z,11.70
2023-02-17T10:33:50.029Z,11.70
2023-02-17T10:36:25.327Z,11.80
2023-02-17T10:38:54.002Z,11.80
2023-02-17T10:41:27.037Z,11.80
2023-02-17T10:43:55.403Z,11.90
2023-02-17T10:46:28.480Z,11.90
2023-02-17T10:48:57.125Z,11.90
2023-02-17T10:51:27.097Z,12.00
2023-02-17T10:53:59.383Z,12.00
2023-02-17T10:56:35.399Z,12.10
2023-02-17T10:59:08.708Z,12.10
2023-02-17T11:01:37.080Z,12.20
2023-02-17T11:04:06.306Z,12.30
2023-02-17T11:06:41.149Z,12.40
2023-02-17T11:09:19.830Z,12.50
2023-02-17T11:11:57.414Z,12.60
2023-02-17T11:14:27.535Z,12.70
2023-02-17T11:16:59.277Z,12.80
2023-02-17T11:19:29.522Z,12.90
2023-02-17T11:21:58.770Z,13.00
2023-02-17T11:24:26.387Z,13.10
2023-02-17T11:27:00.720Z,13.10
2023-02-17T11:29:28.196Z,13.20
2023-02-17T11:31:57.829Z,13.20
2023-02-17T11:34:28.304Z,13.30
2023-02-17T11:37:01.302Z,13.30
2023-02-17T11:39:28.684Z,13.40
2023-02-17T11:41:57.687Z,13.50
2023-02-17T11:44:25.844Z,13.50
2023-02-17T11:47:05.201Z,13.60
2023-02-17T11:49:55.441Z,13.60
2023-02-17T11:52:34.323Z,13.70
2023-02-17T11:55:24.699Z,13.80
2023-02-17T11:58:07.998Z,13.90
2023-02-17T12:00:43.703Z,13.90
2023-02-17T12:03:33.478Z,13.90
2023-02-17T12:06:08.607Z,13.90
2023-02-17T12:08:47.488Z,14.00
2023-02-17T12:11:22.259Z,14.00
2023-02-17T12:14:01.390Z,14.10
2023-02-17T12:16:40.108Z,14.10
2023-02-17T12:19:31.452Z,14.10
2023-02-17T12:22:04.684Z,14.10
2023-02-17T12:24:44.727Z,14.10
2023-02-17T12:27:24.999Z,14.20
2023-02-17T12:30:07.659Z,14.20
2023-02-17T12:32:46.659Z,14.20
2023-02-17T12:35:18.482Z,14.20
2023-02-17T12:37:51.376Z,14.20
2023-02-17T12:40:32.329Z,14.30
2023-02-17T12:43:03.030Z,14.20
2023-02-17T12:45:39.471Z,14.20
2023-02-17T12:48:16.126Z,14.20
2023-02-17T12:50:51.963Z,14.20
2023-02-17T12:53:26.903Z,14.20
2023-02-17T12:55:57.714Z,14.20
2023-02-17T12:58:27.870Z,14.20
2023-02-17T13:01:06.874Z,14.20
2023-02-17T13:03:36.322Z,14.20
2023-02-17T13:06:11.355Z,14.20
2023-02-17T13:08:44.834Z,14.20
2023-02-17T13:11:25.536Z,14.20
2023-02-17T13:13:52.498Z,14.10
2023-02-17T13:16:20.758Z,14.00
2023-02-17T13:18:50.532Z,14.10
2023-02-17T13:21:28.764Z,14.00
2023-02-17T13:24:00.946Z,14.00
2023-02-17T13:26:30.344Z,13.90
2023-02-17T13:29:34.578Z,14.00
2023-02-17T13:32:05.222Z,14.00
2023-02-17T13:34:35.322Z,13.90
2023-02-17T13:37:14.829Z,13.90
2023-02-17T13:39:41.749Z,14.00
2023-02-17T13:42:32.456Z,13.90
2023-02-17T13:44:59.405Z,13.90
2023-02-17T13:47:36.595Z,13.90
2023-02-17T13:50:05.741Z,14.00
2023-02-17T13:52:33.179Z,14.00
2023-02-17T13:55:01.770Z,14.00
2023-02-17T13:57:30.441Z,13.90
2023-02-17T14:00:09.161Z,13.80
2023-02-17T14:02:45.669Z,13.80
2023-02-17T14:05:18.820Z,13.80
2023-02-17T14:07:49.272Z,13.80
2023-02-17T14:10:19.256Z,13.80
2023-02-17T14:12:48.717Z,13.80
2023-02-17T14:15:16.815Z,13.80
2023-02-17T14:17:45.203Z,13.80
2023-02-17T14:20:26.347Z,13.90
2023-02-17T14:23:04.186Z,13.90
2023-02-17T14:25:33.493Z,13.90
2023-02-17T14:28:00.373Z,13.90
2023-02-17T14:30:32.414Z,14.00
2023-02-17T14:33:06.499Z,14.00
2023-02-17T14:35:35.433Z,13.90
2023-02-17T14:38:21.476Z,13.90
2023-02-17T14:40:48.711Z,13.90
2023-02-17T14:43:15.833Z,13.90
2023-02-17T14:45:42.798Z,13.90
2023-02-17T14:48:11.233Z,13.90
2023-02-17T14:50:42.415Z,13.90
2023-02-17T14:53:13.765Z,13.90
2023-02-17T14:55:46.165Z,13.90
2023-02-17T14:58:19.416Z,14.00
2023-02-17T15:00:46.494Z,14.10
2023-02-17T15:03:15.243Z,14.00
2023-02-17T15:05:42.396Z,14.00
2023-02-17T15:08:12.526Z,14.00
2023-02-17T15:10:40.051Z,14.00
2023-02-17T15:13:07.145Z,14.00
2023-02-17T15:15:34.088Z,14.00
2023-02-17T15:18:01.018Z,14.00
2023-02-17T15:20:29.235Z,14.00
2023-02-17T15:22:57.345Z,14.00
2023-02-17T15:25:24.394Z,14.00
2023-02-17T15:27:51.871Z,14.00
2023-02-17T15:30:20.612Z,14.00
2023-02-17T15:32:49.002Z,14.00
2023-02-17T15:35:17.536Z,14.10
2023-02-17T15:37:45.801Z,14.10
2023-02-17T15:40:17.562Z,14.10
2023-02-17T15:42:46.030Z,14.10
2023-02-17T15:45:17.460Z,14.10
2023-02-17T15:47:44.493Z,14.00
2023-02-17T15:50:18.173Z,14.10
2023-02-17T15:52:48.472Z,14.00
2023-02-17T15:55:16.047Z,14.00
2023-02-17T15:57:47.167Z,14.00
2023-02-17T16:00:19.587Z,14.00
2023-02-17T16:02:46.722Z,14.00
2023-02-17T16:05:16.387Z,14.00
2023-02-17T16:07:43.423Z,14.00
2023-02-17T16:10:14.173Z,14.00
2023-02-17T16:12:42.164Z,14.00
2023-02-17T16:15:13.539Z,14.00
2023-02-17T16:17:40.492Z,14.00
2023-02-17T16:20:15.555Z,14.00
2023-02-17T16:22:43.558Z,14.00
2023-02-17T16:25:12.512Z,14.00
2023-02-17T16:27:40.031Z,13.90
2023-02-17T16:30:19.647Z,13.90
2023-02-17T16:32:47.120Z,14.00
2023-02-17T17:00:46.669Z,13.80
2023-02-17T17:03:14.043Z,13.70
2023-02-17T17:05:42.878Z,13.70
2023-02-17T17:10:46.419Z,13.70
2023-02-17T17:13:13.651Z,13.80
2023-02-17T17:15:43.089Z,13.70
2023-02-17T17:18:18.880Z,13.70
2023-02-17T17:20:45.813Z,13.80
2023-02-17T17:23:14.978Z,13.80
2023-02-17T17:25:45.057Z,13.70
2023-02-17T17:28:13.694Z,13.70
2023-02-17T17:30:40.680Z,13.70
2023-02-17T17:33:07.587Z,13.70
2023-02-17T17:35:36.479Z,13.70
2023-02-17T17:38:03.561Z,13.70
2023-02-17T17:40:32.730Z,13.70
2023-02-17T17:43:00.218Z,13.70
2023-02-17T17:45:27.195Z,13.70
2023-02-17T17:47:54.063Z,13.70
2023-02-17T17:50:23.784Z,13.70
2023-02-17T17:52:53.216Z,13.70
2023-02-17T17:55:22.499Z,13.60
2023-02-17T17:57:49.779Z,13.70
2023-02-17T18:00:18.405Z,13.60
2023-02-17T18:02:45.492Z,13.60
2023-02-17T18:05:13.056Z,13.60
2023-02-17T18:07:41.037Z,13.60
2023-02-17T18:10:11.688Z,13.60
2023-02-17T18:12:38.839Z,13.60
2023-02-17T18:15:07.317Z,13.60
2023-02-17T18:17:37.634Z,13.50
2023-02-17T18:20:05.678Z,13.60
2023-02-17T18:22:32.740Z,13.50
2023-02-17T18:24:59.597Z,13.60
2023-02-17T18:27:27.934Z,13.50
2023-02-17T18:29:56.201Z,13.50
2023-02-17T18:32:24.596Z,13.50
2023-02-17T18:34:51.489Z,13.50
2023-02-17T18:37:18.395Z,13.40
2023-02-17T18:39:45.275Z,13.40
2023-02-17T18:42:12.184Z,13.40
2023-02-17T18:44:40.436Z,13.40
2023-02-17T18:47:07.312Z,13.40
2023-02-17T18:49:34.212Z,13.40
2023-02-17T18:52:01.161Z,13.30
2023-02-17T18:54:28.016Z,13.30
2023-02-17T18:56:54.853Z,13.30
2023-02-17T18:59:21.805Z,13.40
2023-02-17T19:01:50.057Z,13.40
2023-02-17T19:04:16.967Z,13.40
2023-02-17T19:06:43.872Z,13.30
2023-02-17T19:09:10.810Z,13.40
2023-02-17T19:11:37.725Z,13.40
2023-02-17T19:14:04.769Z,13.40
2023-02-17T19:16:32.594Z,13.40
2023-02-17T19:19:01.636Z,13.40
2023-02-17T19:21:28.615Z,13.40
2023-02-17T19:23:55.932Z,13.40
2023-02-17T19:26:23.036Z,13.40
2023-02-17T19:28:50.037Z,13.40
2023-02-17T19:31:19.202Z,13.40
2023-02-17T19:33:46.959Z,13.30
2023-02-17T19:36:17.510Z,13.30
2023-02-17T19:38:44.553Z,13.30
2023-02-17T19:41:13.266Z,13.30
2023-02-17T19:43:41.742Z,13.30
2023-02-17T19:46:12.342Z,13.30
2023-02-17T19:48:39.532Z,13.30
2023-02-17T19:51:08.316Z,13.20
2023-02-17T19:53:36.671Z,13.20
2023-02-17T19:56:10.469Z,13.20
2023-02-17T19:58:38.546Z,13.20
2023-02-17T20:01:06.689Z,13.20
2023-02-17T20:03:33.746Z,13.10
2023-02-17T20:06:05.060Z,13.10
2023-02-17T20:08:32.502Z,13.10
2023-02-17T20:11:04.869Z,13.10
2023-02-17T20:13:44.618Z,13.00
2023-02-17T20:16:13.851Z,13.00
2023-02-17T20:18:44.604Z,13.00
2023-02-17T20:21:14.605Z,13.00
2023-02-17T20:23:41.860Z,13.00
2023-02-17T20:26:12.436Z,13.00
2023-02-17T20:28:42.830Z,13.00
2023-02-17T20:31:11.932Z,13.10
2023-02-17T20:33:39.579Z,13.00
2023-02-17T20:36:07.871Z,13.00
2023-02-17T20:38:35.148Z,13.00
2023-02-17T20:41:02.086Z,13.00
2023-02-17T20:43:30.335Z,13.00
2023-02-17T20:45:58.060Z,13.00
2023-02-17T20:48:27.760Z,13.00
2023-02-17T20:50:54.732Z,13.00
2023-02-17T20:53:21.921Z,13.00
2023-02-17T20:55:48.762Z,12.90
2023-02-17T20:58:15.769Z,12.90
2023-02-17T21:00:44.249Z,12.90
2023-02-17T21:03:11.090Z,12.90
2023-02-17T21:05:38.274Z,12.90
2023-02-17T21:08:09.462Z,12.90
2023-02-17T21:10:36.426Z,12.90
2023-02-17T21:13:03.378Z,13.00
2023-02-17T21:15:30.244Z,13.00
2023-02-17T21:17:58.548Z,13.00
2023-02-17T21:20:25.402Z,13.00
2023-02-17T21:22:52.570Z,12.90
2023-02-17T21:25:19.558Z,12.90
2023-02-17T21:27:46.486Z,13.00
2023-02-17T21:30:14.383Z,13.00
2023-02-17T21:32:41.310Z,13.00
2023-02-17T21:35:10.538Z,13.00
2023-02-17T21:37:38.960Z,13.10
2023-02-17T21:40:07.576Z,13.10
2023-02-17T21:42:54.637Z,13.00
2023-02-17T21:45:21.626Z,13.00
2023-02-17T21:47:48.564Z,13.00
2023-02-17T21:50:18.220Z,13.00
2023-02-17T21:52:45.173Z,13.00
2023-02-17T21:55:12.071Z,13.00
2023-02-17T21:57:38.979Z,13.10
2023-02-17T22:00:08.731Z,13.10
2023-02-17T22:02:36.532Z,13.10
2023-02-17T22:05:04.086Z,13.10
2023-02-17T22:07:32.370Z,13.10
2023-02-17T22:09:59.373Z,13.10
2023-02-17T22:12:26.457Z,13.10
2023-02-17T22:14:53.338Z,13.20
2023-02-17T22:17:20.153Z,13.20
2023-02-17T22:19:46.930Z,13.20
2023-02-17T22:22:13.846Z,13.20
2023-02-17T22:24:42.061Z,13.20
2023-02-17T22:27:08.885Z,13.20
2023-02-17T22:29:35.756Z,13.20
2023-02-17T22:32:02.857Z,13.10
2023-02-17T22:34:29.845Z,13.10
2023-02-17T22:36:56.863Z,13.10
2023-02-17T22:39:23.829Z,13.10
2023-02-17T22:41:51.933Z,13.00
2023-02-17T22:44:19.089Z,13.00
2023-02-17T22:46:45.988Z,13.00
2023-02-17T22:49:12.920Z,13.00
2023-02-17T22:51:40.528Z,12.90
2023-02-17T22:54:07.984Z,12.90
2023-02-17T22:56:34.993Z,12.90
2023-02-17T22:59:05.476Z,12.90
2023-02-17T23:01:34.599Z,12.90
2023-02-17T23:04:02.209Z,12.90
2023-02-17T23:06:31.856Z,12.90
2023-02-17T23:08:59.358Z,13.00
2023-02-17T23:11:47.686Z,13.00
2023-02-17T23:14:20.833Z,12.90
2023-02-17T23:16:47.895Z,13.00
2023-02-17T23:19:16.920Z,13.00
2023-02-17T23:21:44.915Z,13.00
2023-02-17T23:24:12.611Z,13.00
2023-02-17T23:26:39.748Z,13.00
2023-02-17T23:29:06.969Z,12.90
2023-02-17T23:31:36.455Z,13.00
2023-02-17T23:34:03.558Z,13.00
2023-02-17T23:36:30.633Z,13.00
2023-02-17T23:38:58.314Z,13.00
2023-02-17T23:41:25.549Z,13.00
2023-02-17T23:43:52.406Z,13.00
2023-02-17T23:46:20.655Z,13.00
2023-02-17T23:48:49.022Z,13.00
2023-02-17T23:51:17.316Z,13.00
2023-02-17T23:53:44.652Z,12.90
2023-02-17T23:56:14.511Z,12.90
2023-02-17T23:58:41.872Z,12.70
